createdAt,value
2019-01-26T00:00:30.482Z,99.90
2019-01-26T00:03:01.024Z,99.90
2019-01-26T00:05:31.907Z,99.90
2019-01-26T00:08:02.762Z,99.90
2019-01-26T00:10:33.261Z,99.90
2019-01-26T00:13:03.784Z,99.90
2019-01-26T00:15:35.816Z,99.90
2019-01-26T00:18:07.019Z,99.90
2019-01-26T00:20:37.759Z,99.90
2019-01-26T00:23:20.291Z,99.90
2019-01-26T00:25:51.623Z,99.90
2019-01-26T00:28:22.208Z,99.90
2019-01-26T00:30:52.710Z,99.90
2019-01-26T00:33:29.938Z,99.90
2019-01-26T00:36:44.973Z,99.90
2019-01-26T00:39:15.628Z,99.90
2019-01-26T00:41:46.193Z,99.90
2019-01-26T00:44:16.844Z,99.90
2019-01-26T00:46:47.357Z,99.90
2019-01-26T00:49:17.803Z,99.90
2019-01-26T00:51:48.414Z,99.90
2019-01-26T00:54:18.928Z,99.90
2019-01-26T00:56:49.399Z,99.90
2019-01-26T00:59:20.096Z,99.90
2019-01-26T01:01:50.648Z,99.90
2019-01-26T01:04:21.732Z,99.90
2019-01-26T01:06:52.503Z,99.90
2019-01-26T01:09:23.029Z,99.90
2019-01-26T01:11:53.813Z,99.90
2019-01-26T01:14:24.495Z,99.90
2019-01-26T01:16:54.975Z,99.90
2019-01-26T01:19:25.584Z,99.90
2019-01-26T01:21:56.697Z,99.90
2019-01-26T01:24:27.141Z,99.90
2019-01-26T01:26:58.804Z,99.90
2019-01-26T01:29:32.362Z,99.90
2019-01-26T01:32:02.864Z,99.90
2019-01-26T01:34:33.432Z,99.90
2019-01-26T01:37:04.033Z,99.90
2019-01-26T01:39:35.012Z,99.90
2019-01-26T01:42:05.975Z,99.90
2019-01-26T01:44:36.561Z,99.90
2019-01-26T01:47:07.104Z,99.90
2019-01-26T01:49:37.876Z,99.90
2019-01-26T01:52:08.284Z,99.90
2019-01-26T01:54:39.509Z,99.90
2019-01-26T01:57:10.272Z,99.90
2019-01-26T01:59:40.892Z,99.90
2019-01-26T02:02:11.396Z,99.90
2019-01-26T02:04:41.924Z,99.90
2019-01-26T02:07:12.472Z,99.90
2019-01-26T02:09:43.020Z,99.90
2019-01-26T02:12:13.550Z,99.90
2019-01-26T02:14:44.181Z,99.90
2019-01-26T02:17:14.711Z,99.90
2019-01-26T02:19:45.234Z,99.90
2019-01-26T02:22:15.742Z,99.90
2019-01-26T02:24:46.268Z,99.90
2019-01-26T02:27:16.772Z,99.90
2019-01-26T02:29:47.208Z,99.90
2019-01-26T02:32:17.721Z,99.90
2019-01-26T02:34:48.163Z,99.90
2019-01-26T02:37:18.733Z,99.90
2019-01-26T02:39:49.252Z,99.90
2019-01-26T02:42:19.768Z,99.90
2019-01-26T02:44:50.386Z,99.90
2019-01-26T02:47:21.328Z,99.90
2019-01-26T02:49:51.996Z,99.90
2019-01-26T02:52:22.505Z,99.90
2019-01-26T02:54:53.183Z,99.90
2019-01-26T02:57:23.722Z,99.90
2019-01-26T02:59:54.251Z,99.90
2019-01-26T03:02:24.737Z,99.90
2019-01-26T03:04:55.256Z,99.90
2019-01-26T03:07:25.731Z,99.90
2019-01-26T03:09:56.338Z,99.90
2019-01-26T03:12:26.861Z,99.90
2019-01-26T03:14:57.290Z,99.90
2019-01-26T03:17:27.832Z,99.90
2019-01-26T03:20:05.225Z,99.90
2019-01-26T03:22:35.670Z,99.90
2019-01-26T03:25:07.089Z,99.90
2019-01-26T03:27:37.831Z,99.90
2019-01-26T03:30:14.426Z,99.90
2019-01-26T03:32:44.962Z,99.90
2019-01-26T03:35:15.803Z,99.90
2019-01-26T03:37:46.297Z,99.90
2019-01-26T03:40:18.769Z,99.90
2019-01-26T03:42:49.770Z,99.90
2019-01-26T03:45:20.205Z,99.90
2019-01-26T03:47:50.826Z,99.90
2019-01-26T03:50:21.280Z,99.90
2019-01-26T03:52:51.833Z,99.90
2019-01-26T03:55:22.420Z,99.90
2019-01-26T03:57:53.067Z,99.90
2019-01-26T04:00:26.017Z,99.90
2019-01-26T04:02:56.953Z,99.90
2019-01-26T04:05:27.783Z,99.90
2019-01-26T04:07:58.608Z,99.90
2019-01-26T04:10:29.713Z,99.90
2019-01-26T04:13:00.392Z,99.90
2019-01-26T04:15:30.854Z,99.90
2019-01-26T04:18:01.995Z,99.90
2019-01-26T04:20:32.426Z,99.90
2019-01-26T04:23:02.947Z,99.90
2019-01-26T04:25:33.433Z,99.90
2019-01-26T04:28:05.174Z,99.90
2019-01-26T04:30:35.724Z,99.90
2019-01-26T04:33:06.296Z,99.90
2019-01-26T04:35:36.830Z,99.90
2019-01-26T04:38:07.319Z,99.90
2019-01-26T04:40:38.954Z,99.90
2019-01-26T04:43:09.528Z,99.90
2019-01-26T04:45:40.027Z,99.60
2019-01-26T04:48:14.347Z,99.40
2019-01-26T04:50:44.806Z,99.50
2019-01-26T04:53:15.363Z,99.50
2019-01-26T04:55:45.859Z,99.50
2019-01-26T04:58:16.461Z,99.50
2019-01-26T05:00:47.074Z,99.40
2019-01-26T05:03:17.569Z,99.50
2019-01-26T05:05:48.486Z,99.20
2019-01-26T05:08:18.972Z,99.30
2019-01-26T05:10:49.442Z,99.40
2019-01-26T05:13:20.029Z,99.50
2019-01-26T05:15:50.421Z,99.80
2019-01-26T05:18:20.932Z,99.40
2019-01-26T05:20:51.414Z,99.30
2019-01-26T05:23:21.950Z,99.50
2019-01-26T05:25:52.471Z,99.30
2019-01-26T05:28:23.332Z,99.40
2019-01-26T05:30:54.444Z,99.10
2019-01-26T05:33:25.132Z,98.80
2019-01-26T05:35:57.140Z,98.70
2019-01-26T05:38:27.639Z,98.90
2019-01-26T05:40:58.214Z,98.40
2019-01-26T05:43:28.928Z,98.60
2019-01-26T05:45:59.473Z,98.70
2019-01-26T05:48:29.986Z,98.50
2019-01-26T05:51:00.460Z,98.50
2019-01-26T05:53:31.002Z,98.80
2019-01-26T05:56:01.550Z,98.90
2019-01-26T05:58:32.052Z,98.80
2019-01-26T06:04:15.470Z,98.60
2019-01-26T06:06:45.930Z,98.40
2019-01-26T06:09:16.609Z,98.50
2019-01-26T06:11:54.358Z,98.20
2019-01-26T06:14:25.302Z,98.30
2019-01-26T06:16:56.208Z,98.30
2019-01-26T06:19:27.375Z,98.10
2019-01-26T06:21:57.872Z,98.20
2019-01-26T06:24:28.425Z,98.30
2019-01-26T06:26:59.089Z,98.30
2019-01-26T06:29:29.675Z,98.00
2019-01-26T06:32:00.263Z,98.10
2019-01-26T06:34:30.903Z,98.10
2019-01-26T06:37:01.407Z,97.90
2019-01-26T06:39:31.989Z,97.90
2019-01-26T06:42:02.889Z,97.90
2019-01-26T06:44:33.426Z,97.50
2019-01-26T06:47:04.045Z,97.40
2019-01-26T06:49:34.779Z,97.70
2019-01-26T06:52:05.637Z,97.60
2019-01-26T06:54:36.261Z,97.30
2019-01-26T06:57:06.812Z,97.30
2019-01-26T06:59:37.527Z,97.10
2019-01-26T07:02:08.434Z,97.40
2019-01-26T07:04:46.997Z,97.80
2019-01-26T07:07:19.156Z,97.30
2019-01-26T07:09:49.688Z,97.40
2019-01-26T07:12:20.330Z,97.40
2019-01-26T07:15:03.030Z,97.30
2019-01-26T07:17:33.552Z,97.40
2019-01-26T07:20:04.720Z,97.20
2019-01-26T07:22:35.280Z,97.10
2019-01-26T07:25:06.777Z,97.00
2019-01-26T07:27:37.461Z,97.00
2019-01-26T07:30:10.540Z,97.10
2019-01-26T07:32:41.336Z,97.10
2019-01-26T07:35:11.895Z,97.60
2019-01-26T07:37:42.504Z,97.30
2019-01-26T07:40:16.095Z,96.90
2019-01-26T07:42:46.646Z,96.90
2019-01-26T07:45:18.457Z,96.90
2019-01-26T07:47:48.960Z,96.90
2019-01-26T07:50:20.593Z,96.90
2019-01-26T07:52:51.687Z,96.80
2019-01-26T07:55:22.177Z,96.80
2019-01-26T07:57:52.848Z,96.90
2019-01-26T08:00:25.475Z,97.00
2019-01-26T08:02:56.053Z,96.60
2019-01-26T08:05:27.052Z,96.80
2019-01-26T08:07:57.816Z,96.70
2019-01-26T08:10:28.361Z,96.20
2019-01-26T08:13:00.233Z,96.30
2019-01-26T08:15:36.175Z,96.30
2019-01-26T08:18:08.453Z,96.10
2019-01-26T08:20:39.052Z,96.00
2019-01-26T08:23:09.811Z,95.90
2019-01-26T08:25:40.268Z,95.60
2019-01-26T08:28:10.906Z,95.50
2019-01-26T08:30:41.339Z,95.30
2019-01-26T08:33:11.889Z,95.30
2019-01-26T08:35:42.484Z,94.60
2019-01-26T08:38:13.900Z,94.30
2019-01-26T08:40:45.962Z,93.80
2019-01-26T08:43:16.609Z,93.90
2019-01-26T08:45:51.094Z,94.40
2019-01-26T08:48:21.765Z,94.40
2019-01-26T08:50:52.396Z,94.60
2019-01-26T08:53:22.922Z,94.90
2019-01-26T08:55:53.542Z,94.40
2019-01-26T08:58:24.126Z,94.50
2019-01-26T09:00:54.656Z,93.60
2019-01-26T09:03:44.895Z,93.50
2019-01-26T09:06:21.521Z,93.40
2019-01-26T09:08:52.098Z,93.20
2019-01-26T09:11:22.690Z,92.90
2019-01-26T09:13:53.249Z,93.60
2019-01-26T09:16:24.433Z,94.30
2019-01-26T09:18:54.997Z,93.70
2019-01-26T09:21:25.484Z,93.50
2019-01-26T09:23:56.205Z,93.50
2019-01-26T09:26:26.731Z,93.70
2019-01-26T09:28:57.339Z,93.40
2019-01-26T09:31:27.926Z,93.10
2019-01-26T09:33:58.485Z,92.80
2019-01-26T09:36:29.087Z,92.50
2019-01-26T09:38:59.644Z,92.80
2019-01-26T09:41:30.251Z,93.00
2019-01-26T09:44:00.773Z,92.60
2019-01-26T09:46:31.265Z,92.60
2019-01-26T09:49:01.795Z,92.60
2019-01-26T09:51:32.424Z,93.00
2019-01-26T09:54:03.159Z,92.60
2019-01-26T09:56:33.658Z,92.10
2019-01-26T09:59:04.522Z,92.50
2019-01-26T10:01:35.179Z,92.50
2019-01-26T10:04:05.862Z,92.70
2019-01-26T10:06:36.356Z,93.40
2019-01-26T10:09:13.204Z,93.00
2019-01-26T10:11:43.783Z,93.20
2019-01-26T10:14:14.338Z,92.70
2019-01-26T10:16:44.878Z,92.10
2019-01-26T10:19:15.395Z,92.10
2019-01-26T10:21:46.066Z,92.20
2019-01-26T10:24:16.680Z,92.20
2019-01-26T10:26:47.299Z,92.40
2019-01-26T10:29:17.798Z,92.20
2019-01-26T10:31:48.885Z,92.30
2019-01-26T10:34:19.812Z,91.50
2019-01-26T10:36:57.658Z,91.50
2019-01-26T10:39:28.322Z,91.40
2019-01-26T10:42:27.091Z,91.80
2019-01-26T10:44:57.860Z,91.80
2019-01-26T10:47:28.303Z,91.60
2019-01-26T10:49:58.796Z,91.00
2019-01-26T10:52:29.623Z,91.40
2019-01-26T10:55:00.501Z,91.30
2019-01-26T10:57:31.673Z,91.40
2019-01-26T11:00:02.591Z,91.30
2019-01-26T11:02:33.493Z,91.20
2019-01-26T11:05:04.287Z,91.40
2019-01-26T11:07:35.043Z,91.60
2019-01-26T11:10:06.928Z,90.80
2019-01-26T11:12:37.372Z,90.60
2019-01-26T11:15:09.293Z,91.00
2019-01-26T11:17:39.769Z,90.60
2019-01-26T11:20:10.870Z,90.60
2019-01-26T11:22:41.428Z,90.30
2019-01-26T11:25:12.167Z,90.80
2019-01-26T11:27:42.964Z,90.20
2019-01-26T11:30:13.593Z,90.20
2019-01-26T11:32:44.149Z,89.20
2019-01-26T11:35:14.863Z,87.20
2019-01-26T11:37:45.460Z,85.80
2019-01-26T11:40:21.752Z,85.40
2019-01-26T11:42:53.390Z,87.00
2019-01-26T11:45:51.666Z,85.00
2019-01-26T11:48:27.833Z,86.20
2019-01-26T11:51:06.530Z,86.70
2019-01-26T11:53:37.019Z,85.70
2019-01-26T11:56:16.286Z,87.70
2019-01-26T11:58:46.804Z,87.80
2019-01-26T12:01:35.448Z,87.40
2019-01-26T12:04:25.934Z,90.10
2019-01-26T12:07:04.636Z,89.90
2019-01-26T12:09:35.118Z,89.50
2019-01-26T12:12:05.758Z,89.30
2019-01-26T12:14:36.360Z,88.90
2019-01-26T12:17:06.846Z,89.30
2019-01-26T12:19:37.576Z,89.70
2019-01-26T12:22:08.116Z,90.20
2019-01-26T12:24:38.570Z,89.90
2019-01-26T12:27:09.230Z,90.20
2019-01-26T12:29:40.312Z,90.30
2019-01-26T12:32:11.010Z,90.50
2019-01-26T12:34:41.511Z,90.70
2019-01-26T12:37:12.154Z,90.90
2019-01-26T12:39:42.678Z,90.70
2019-01-26T12:42:13.234Z,91.00
2019-01-26T12:44:43.729Z,90.90
2019-01-26T12:47:17.080Z,90.40
2019-01-26T12:49:46.657Z,90.20
2019-01-26T12:52:17.191Z,90.30
2019-01-26T12:54:47.709Z,89.70
2019-01-26T12:57:18.862Z,90.60
2019-01-26T12:59:49.289Z,90.30
2019-01-26T13:02:19.823Z,90.60
2019-01-26T13:04:50.531Z,90.90
2019-01-26T13:07:21.139Z,90.80
2019-01-26T13:09:51.673Z,90.80
2019-01-26T13:12:22.389Z,91.00
2019-01-26T13:14:53.025Z,91.40
2019-01-26T13:17:23.489Z,91.30
2019-01-26T13:19:54.043Z,91.50
2019-01-26T13:22:24.547Z,91.70
2019-01-26T13:24:55.113Z,91.90
2019-01-26T13:27:25.754Z,92.20
2019-01-26T13:29:56.259Z,91.80
2019-01-26T13:32:26.795Z,91.10
2019-01-26T13:34:57.304Z,91.50
2019-01-26T13:37:27.799Z,91.70
2019-01-26T13:39:58.308Z,91.80
2019-01-26T13:42:28.826Z,92.00
2019-01-26T13:44:59.409Z,92.10
2019-01-26T13:47:30.008Z,91.50
2019-01-26T13:50:00.506Z,90.60
2019-01-26T13:52:30.970Z,91.10
2019-01-26T13:55:01.574Z,91.30
2019-01-26T13:57:31.952Z,91.40
2019-01-26T14:00:02.527Z,91.60
2019-01-26T14:02:33.028Z,91.40
2019-01-26T14:05:03.509Z,92.10
2019-01-26T14:07:34.038Z,92.20
2019-01-26T14:10:05.584Z,93.10
2019-01-26T14:12:36.064Z,93.30
2019-01-26T14:15:07.058Z,94.00
2019-01-26T14:17:37.566Z,94.30
2019-01-26T14:20:11.307Z,94.90
2019-01-26T14:22:41.873Z,95.20
2019-01-26T14:25:12.652Z,95.30
2019-01-26T14:27:43.381Z,95.80
2019-01-26T14:30:19.971Z,95.90
2019-01-26T14:32:52.633Z,96.10
2019-01-26T14:35:22.625Z,96.00
2019-01-26T14:37:53.155Z,96.10
2019-01-26T14:40:23.677Z,96.60
2019-01-26T14:42:54.704Z,96.40
2019-01-26T14:45:25.665Z,96.60
2019-01-26T14:47:56.345Z,96.70
2019-01-26T14:50:26.875Z,96.80
2019-01-26T14:52:57.571Z,97.20
2019-01-26T14:55:28.087Z,97.50
2019-01-26T14:57:58.661Z,97.80
2019-01-26T15:00:31.165Z,97.90
2019-01-26T15:03:01.823Z,97.90
2019-01-26T15:05:32.555Z,98.20
2019-01-26T15:08:03.378Z,98.10
2019-01-26T15:10:33.912Z,98.00
2019-01-26T15:13:04.776Z,98.10
2019-01-26T15:15:35.316Z,98.30
2019-01-26T15:18:06.054Z,98.20
2019-01-26T15:20:38.852Z,98.00
2019-01-26T15:23:09.780Z,98.20
2019-01-26T15:25:40.387Z,98.20
2019-01-26T15:28:11.022Z,98.40
2019-01-26T15:30:43.650Z,98.20
2019-01-26T15:33:15.070Z,98.10
2019-01-26T15:35:45.566Z,98.00
2019-01-26T15:38:16.058Z,98.10
2019-01-26T15:40:46.625Z,98.00
2019-01-26T15:43:17.114Z,98.00
2019-01-26T15:45:49.424Z,98.40
2019-01-26T15:48:20.029Z,98.80
2019-01-26T15:50:50.566Z,98.90
2019-01-26T15:53:21.123Z,98.80
2019-01-26T15:55:52.182Z,98.80
2019-01-26T15:58:22.745Z,98.70
2019-01-26T16:00:53.193Z,98.70
2019-01-26T16:03:23.680Z,98.90
2019-01-26T16:05:54.138Z,99.10
2019-01-26T16:08:25.063Z,99.10
2019-01-26T16:10:56.147Z,99.20
2019-01-26T16:13:26.633Z,99.20
2019-01-26T16:15:59.337Z,99.20
2019-01-26T16:18:30.445Z,99.00
2019-01-26T16:21:01.283Z,99.00
2019-01-26T16:23:32.152Z,99.00
2019-01-26T16:26:02.777Z,99.20
2019-01-26T16:28:33.966Z,99.00
2019-01-26T16:31:04.568Z,99.10
2019-01-26T16:33:35.019Z,99.30
2019-01-26T16:36:05.891Z,99.20
2019-01-26T16:38:36.346Z,99.40
2019-01-26T16:41:07.330Z,99.60
2019-01-26T16:43:38.058Z,99.80
2019-01-26T16:46:08.545Z,99.50
2019-01-26T16:48:39.058Z,99.20
2019-01-26T16:51:09.717Z,98.90
2019-01-26T16:53:41.008Z,98.90
2019-01-26T16:56:12.280Z,99.10
2019-01-26T16:58:43.073Z,99.50
2019-01-26T17:01:13.560Z,99.60
2019-01-26T17:03:44.590Z,99.60
2019-01-26T17:06:15.642Z,99.70
2019-01-26T17:08:46.570Z,99.90
2019-01-26T17:11:17.208Z,99.90
2019-01-26T17:13:47.778Z,99.90
2019-01-26T17:16:18.393Z,99.90
2019-01-26T17:18:49.082Z,99.90
2019-01-26T17:21:19.790Z,99.80
2019-01-26T17:23:50.591Z,99.70
2019-01-26T17:26:21.162Z,99.90
2019-01-26T17:28:51.889Z,99.90
2019-01-26T17:31:22.652Z,99.80
2019-01-26T17:33:53.245Z,99.90
2019-01-26T17:36:24.153Z,99.80
2019-01-26T17:38:55.007Z,99.90
2019-01-26T17:41:25.939Z,99.70
2019-01-26T17:43:56.509Z,99.40
2019-01-26T17:46:27.609Z,99.50
2019-01-26T17:48:58.227Z,99.30
2019-01-26T17:51:28.757Z,99.30
2019-01-26T17:53:59.365Z,99.60
2019-01-26T17:56:29.927Z,99.50
2019-01-26T17:59:00.472Z,99.60
2019-01-26T18:01:31.334Z,99.60
2019-01-26T18:04:02.513Z,99.50
2019-01-26T18:06:33.152Z,99.40
2019-01-26T18:09:05.227Z,99.30
2019-01-26T18:11:37.332Z,99.30
2019-01-26T18:14:07.925Z,99.50
2019-01-26T18:16:38.806Z,99.60
2019-01-26T18:19:10.360Z,99.80
2019-01-26T18:21:41.097Z,99.80
2019-01-26T18:24:11.740Z,99.90
2019-01-26T18:26:42.278Z,99.90
2019-01-26T18:29:12.702Z,99.80
2019-01-26T18:31:43.348Z,99.80
2019-01-26T18:34:13.717Z,99.90
2019-01-26T18:36:44.232Z,99.80
2019-01-26T18:39:14.810Z,99.90
2019-01-26T18:41:45.503Z,99.70
2019-01-26T18:44:15.986Z,99.50
2019-01-26T18:46:46.680Z,99.20
2019-01-26T18:49:17.481Z,99.20
2019-01-26T18:51:48.243Z,99.50
2019-01-26T18:54:18.914Z,99.80
2019-01-26T18:56:49.703Z,99.20
2019-01-26T18:59:20.544Z,99.20
2019-01-26T19:01:51.812Z,99.10
2019-01-26T19:04:29.619Z,99.20
2019-01-26T19:07:00.134Z,99.20
2019-01-26T19:09:30.892Z,99.10
2019-01-26T19:12:01.473Z,99.10
2019-01-26T19:14:32.066Z,99.50
2019-01-26T19:17:02.755Z,99.70
2019-01-26T19:19:33.546Z,99.90
2019-01-26T19:22:05.168Z,99.90
2019-01-26T19:24:35.764Z,99.90
2019-01-26T19:27:07.844Z,99.90
2019-01-26T19:29:39.270Z,99.90
2019-01-26T19:32:10.057Z,99.90
2019-01-26T19:34:40.679Z,99.90
2019-01-26T19:37:12.314Z,99.90
2019-01-26T19:39:43.418Z,99.90
2019-01-26T19:42:16.141Z,99.90
2019-01-26T19:44:47.071Z,99.90
2019-01-26T19:47:17.801Z,99.90
2019-01-26T19:49:48.315Z,99.90
2019-01-26T19:52:18.866Z,99.90
2019-01-26T19:54:49.615Z,99.90
2019-01-26T19:57:20.332Z,99.90
2019-01-26T19:59:50.966Z,99.90
2019-01-26T20:02:22.794Z,99.80
2019-01-26T20:04:53.472Z,99.90
2019-01-26T20:07:24.413Z,99.80
2019-01-26T20:09:55.707Z,99.60
2019-01-26T20:12:26.476Z,99.80
2019-01-26T20:14:59.104Z,99.80
2019-01-26T20:17:31.025Z,99.90
2019-01-26T20:20:02.831Z,99.80
2019-01-26T20:22:34.449Z,99.80
2019-01-26T20:25:05.604Z,99.50
2019-01-26T20:27:36.760Z,99.70
2019-01-26T20:30:10.404Z,99.90
2019-01-26T20:32:41.116Z,99.90
2019-01-26T20:35:12.041Z,99.80
2019-01-26T20:37:43.816Z,99.90
2019-01-26T20:40:16.957Z,99.90
2019-01-26T20:42:47.519Z,99.90
2019-01-26T20:45:21.109Z,99.90
2019-01-26T20:47:52.020Z,99.60
2019-01-26T20:50:22.689Z,99.60
2019-01-26T20:52:53.463Z,99.60
2019-01-26T20:55:23.997Z,99.80
2019-01-26T20:57:55.187Z,99.80
2019-01-26T21:00:27.858Z,99.90
2019-01-26T21:02:58.337Z,99.70
2019-01-26T21:05:29.195Z,99.90
2019-01-26T21:07:59.913Z,99.70
2019-01-26T21:10:31.091Z,99.50
2019-01-26T21:13:01.914Z,99.50
2019-01-26T21:15:33.025Z,99.70
2019-01-26T21:18:03.729Z,99.50
2019-01-26T21:20:35.071Z,99.60
2019-01-26T21:23:05.971Z,99.50
2019-01-26T21:25:36.975Z,99.60
2019-01-26T21:28:07.793Z,99.80
2019-01-26T21:30:39.059Z,99.70
2019-01-26T21:33:09.895Z,99.80
2019-01-26T21:35:40.916Z,99.90
2019-01-26T21:38:12.149Z,99.90
2019-01-26T21:40:43.014Z,99.90
2019-01-26T21:43:13.702Z,99.90
2019-01-26T21:45:44.494Z,99.90
2019-01-26T21:48:15.256Z,99.90
2019-01-26T21:50:48.464Z,99.90
2019-01-26T21:53:19.337Z,99.90
2019-01-26T21:55:50.635Z,99.90
2019-01-26T21:58:21.650Z,99.90
2019-01-26T22:00:52.294Z,99.90
2019-01-26T22:03:23.244Z,99.90
2019-01-26T22:05:53.856Z,99.90
2019-01-26T22:08:24.288Z,99.90
2019-01-26T22:10:54.967Z,99.90
2019-01-26T22:13:25.510Z,99.90
2019-01-26T22:15:56.240Z,99.90
2019-01-26T22:18:27.142Z,99.90
2019-01-26T22:20:57.914Z,99.90
2019-01-26T22:23:29.272Z,99.90
2019-01-26T22:26:00.143Z,99.90
2019-01-26T22:28:30.739Z,99.90
2019-01-26T22:31:04.022Z,99.90
2019-01-26T22:33:35.014Z,99.90
2019-01-26T22:36:06.012Z,99.90
2019-01-26T22:38:36.673Z,99.90
2019-01-26T22:41:07.409Z,99.90
2019-01-26T22:43:39.142Z,99.90
2019-01-26T22:46:09.978Z,99.90
2019-01-26T22:48:40.806Z,99.90
2019-01-26T22:51:12.093Z,99.90
2019-01-26T22:53:42.830Z,99.90
2019-01-26T22:56:13.511Z,99.90
2019-01-26T22:58:44.085Z,99.90
2019-01-26T23:01:25.287Z,99.90
2019-01-26T23:04:37.068Z,99.90
2019-01-26T23:07:34.048Z,99.90
2019-01-26T23:10:39.513Z,99.90
2019-01-26T23:13:42.383Z,99.90
2019-01-26T23:17:02.274Z,99.90
2019-01-26T23:20:21.979Z,99.90
2019-01-26T23:23:29.408Z,99.90
2019-01-26T23:26:41.452Z,99.90
2019-01-26T23:29:40.102Z,99.90
2019-01-26T23:32:10.684Z,99.90
2019-01-26T23:34:41.220Z,99.90
2019-01-26T23:37:11.846Z,99.90
2019-01-26T23:39:42.356Z,99.90
2019-01-26T23:42:13.193Z,99.90
2019-01-26T23:44:43.998Z,99.90
2019-01-26T23:47:14.602Z,99.90
2019-01-26T23:49:45.394Z,99.90
2019-01-26T23:52:15.897Z,99.90
2019-01-26T23:54:46.330Z,99.90
2019-01-26T23:57:17.066Z,99.90
2019-01-26T23:59:47.549Z,99.90
